Time,TemperatureF,DewpointF,PressureIn,WindDirection,WindDirectionDegrees,WindSpeedMPH,WindSpeedGustMPH,Humidity,HourlyPrecipIn,Conditions,Clouds,dailyrainin,SolarRadiationWatts/m^2,SoftwareType,DateUTC
2013-01-01 00:14:00,35.3,25.0,29.87,West,268,5.0,16.0,67,0.00,,,0.06,0,weatherlink.com 1.10,2013-01-01 05:14:00,
2013-01-01 00:28:00,35.5,25.0,29.87,West,271,6.0,10.0,66,0.00,,,0.06,0,weatherlink.com 1.10,2013-01-01 05:28:00,
2013-01-01 00:43:00,35.5,25.0,29.86,West,278,4.0,10.0,66,0.00,,,0.06,0,weatherlink.com 1.10,2013-01-01 05:43:00,
2013-01-01 00:58:00,35.6,25.0,29.85,SW,232,5.0,11.0,65,0.00,,,0.06,0,weatherlink.com 1.10,2013-01-01 05:58:00,
2013-01-01 01:13:00,35.6,25.0,29.85,West,260,3.0,11.0,66,0.00,,,0.06,0,weatherlink.com 1.10,2013-01-01 06:13:00,
2013-01-01 01:28:00,35.6,25.0,29.86,West,272,3.0,11.0,66,0.00,,,0.06,0,weatherlink.com 1.10,2013-01-01 06:28:00,
2013-01-01 01:43:00,35.7,25.0,29.86,NW,314,7.0,9.0,66,0.00,,,0.06,0,weatherlink.com 1.10,2013-01-01 06:43:00,
2013-01-01 01:58:00,35.6,26.0,29.85,West,271,5.0,10.0,67,0.00,,,0.06,0,weatherlink.com 1.10,2013-01-01 06:58:00,
2013-01-01 02:13:00,35.4,26.0,29.86,WNW,291,5.0,9.0,68,0.00,,,0.06,0,weatherlink.com 1.10,2013-01-01 07:13:00,
2013-01-01 02:28:00,35.3,26.0,29.87,WNW,302,5.0,12.0,69,0.00,,,0.06,0,weatherlink.com 1.10,2013-01-01 07:28:00,
2013-01-01 02:43:00,35.3,26.0,29.85,WSW,244,2.0,8.0,68,0.00,,,0.06,0,weatherlink.com 1.10,2013-01-01 07:43:00,
2013-01-01 02:58:00,35.1,26.0,29.85,WSW,248,3.0,7.0,69,0.00,,,0.06,0,weatherlink.com 1.10,2013-01-01 07:58:00,
2013-01-01 03:13:00,35.0,26.0,29.84,SW,221,5.0,8.0,69,0.00,,,0.06,0,weatherlink.com 1.10,2013-01-01 08:13:00,
2013-01-01 03:28:00,34.5,26.0,29.84,SSW,205,1.0,6.0,70,0.00,,,0.06,0,weatherlink.com 1.10,2013-01-01 08:28:00,
2013-01-01 03:43:00,33.7,25.0,29.84,SW,234,2.0,8.0,71,0.00,,,0.06,0,weatherlink.com 1.10,2013-01-01 08:43:00,
2013-01-01 03:58:00,33.1,25.0,29.84,SW,232,2.0,6.0,72,0.00,,,0.06,0,weatherlink.com 1.10,2013-01-01 08:58:00,
2013-01-01 04:13:00,32.8,25.0,29.85,SW,221,2.0,6.0,73,0.00,,,0.06,0,weatherlink.com 1.10,2013-01-01 09:13:00,
2013-01-01 04:28:00,32.2,25.0,29.85,SW,221,2.0,7.0,74,0.00,,,0.06,0,weatherlink.com 1.10,2013-01-01 09:28:00,
2013-01-01 04:43:00,32.2,25.0,29.85,West,269,3.0,8.0,76,0.00,,,0.06,0,weatherlink.com 1.10,2013-01-01 09:43:00,
2013-01-01 04:58:00,32.9,26.0,29.85,WSW,242,3.0,7.0,76,0.00,,,0.06,0,weatherlink.com 1.10,2013-01-01 09:58:00,
2013-01-01 05:13:00,32.8,26.0,29.85,WSW,250,3.0,7.0,76,0.00,,,0.06,0,weatherlink.com 1.10,2013-01-01 10:13:00,
2013-01-01 05:28:00,33.1,26.0,29.86,SW,234,3.0,10.0,76,0.00,,,0.06,0,weatherlink.com 1.10,2013-01-01 10:28:00,
2013-01-01 05:43:00,33.7,27.0,29.86,West,267,2.0,10.0,75,0.00,,,0.06,0,weatherlink.com 1.10,2013-01-01 10:43:00,
2013-01-01 05:58:00,33.9,27.0,29.85,SW,231,5.0,8.0,75,0.00,,,0.06,0,weatherlink.com 1.10,2013-01-01 10:58:00,
2013-01-01 06:13:00,34.2,27.0,29.85,SW,228,2.0,8.0,76,0.00,,,0.06,0,weatherlink.com 1.10,2013-01-01 11:13:00,
2013-01-01 06:28:00,34.1,27.0,29.86,West,262,3.0,9.0,75,0.00,,,0.06,0,weatherlink.com 1.10,2013-01-01 11:28:00,
2013-01-01 06:43:00,34.1,27.0,29.87,WSW,246,4.0,7.0,76,0.00,,,0.06,0,weatherlink.com 1.10,2013-01-01 11:43:00,
2013-01-01 06:58:00,34.7,28.0,29.86,WSW,253,4.0,9.0,75,0.00,,,0.06,0,weatherlink.com 1.10,2013-01-01 11:58:00,
2013-01-01 07:13:00,34.9,28.0,29.86,WSW,252,2.0,7.0,75,0.00,,,0.06,0,weatherlink.com 1.10,2013-01-01 12:13:00,
2013-01-01 07:28:00,34.7,28.0,29.86,SW,234,2.0,6.0,76,0.00,,,0.06,5,weatherlink.com 1.10,2013-01-01 12:28:00,
2013-01-01 07:43:00,34.4,28.0,29.87,SW,227,2.0,5.0,76,0.00,,,0.06,14,weatherlink.com 1.10,2013-01-01 12:43:00,
2013-01-01 07:58:00,34.2,28.0,29.87,SW,230,2.0,7.0,77,0.00,,,0.06,30,weatherlink.com 1.10,2013-01-01 12:58:00,
2013-01-01 08:13:00,34.5,28.0,29.87,SW,232,4.0,7.0,76,0.00,,,0.06,44,weatherlink.com 1.10,2013-01-01 13:13:00,
2013-01-01 08:28:00,35.1,28.0,29.88,SW,232,3.0,7.0,74,0.00,,,0.06,51,weatherlink.com 1.10,2013-01-01 13:28:00,
2013-01-01 08:43:00,35.3,28.0,29.88,WSW,240,1.0,8.0,74,0.00,,,0.06,40,weatherlink.com 1.10,2013-01-01 13:43:00,
2013-01-01 08:58:00,35.5,28.0,29.88,West,265,1.0,7.0,73,0.00,,,0.06,67,weatherlink.com 1.10,2013-01-01 13:58:00,
2013-01-01 09:13:00,36.1,28.0,29.88,West,261,3.0,7.0,72,0.01,,,0.07,111,weatherlink.com 1.10,2013-01-01 14:13:00,
2013-01-01 09:28:00,36.8,28.0,29.88,SSW,211,4.0,8.0,71,0.01,,,0.07,100,weatherlink.com 1.10,2013-01-01 14:28:00,
2013-01-01 09:43:00,37.7,29.0,29.88,WNW,283,3.0,6.0,70,0.01,,,0.07,165,weatherlink.com 1.10,2013-01-01 14:43:00,
2013-01-01 09:58:00,38.6,29.0,29.88,West,278,10.0,11.0,68,0.01,,,0.07,178,weatherlink.com 1.10,2013-01-01 14:58:00,
2013-01-01 10:13:00,38.6,28.0,29.88,WNW,284,5.0,11.0,66,0.00,,,0.00,151,weatherlink.com 1.10,2013-01-01 15:13:00,
2013-01-01 10:28:00,38.4,27.0,29.88,WNW,290,3.0,10.0,65,0.01,,,0.01,125,weatherlink.com 1.10,2013-01-01 15:28:00,
2013-01-01 10:43:00,38.4,27.0,29.88,West,273,6.0,10.0,65,0.01,,,0.01,144,weatherlink.com 1.10,2013-01-01 15:43:00,
2013-01-01 10:58:00,38.8,28.0,29.86,WNW,286,0.0,5.0,66,0.01,,,0.01,137,weatherlink.com 1.10,2013-01-01 15:58:00,
2013-01-01 11:14:00,39.1,28.0,29.87,West,267,4.0,7.0,64,0.02,,,0.02,163,weatherlink.com 1.10,2013-01-01 16:14:00,
2013-01-01 11:29:00,39.2,27.0,29.87,NW,311,3.0,9.0,62,0.02,,,0.03,169,weatherlink.com 1.10,2013-01-01 16:29:00,
2013-01-01 11:44:00,39.2,27.0,29.86,West,271,0.0,5.0,63,0.03,,,0.04,134,weatherlink.com 1.10,2013-01-01 16:44:00,
2013-01-01 11:59:00,39.1,27.0,29.84,North,5,2.0,4.0,63,0.04,,,0.05,155,weatherlink.com 1.10,2013-01-01 16:59:00,
2013-01-01 12:14:00,39.0,27.0,29.84,West,281,2.0,5.0,63,0.04,,,0.06,160,weatherlink.com 1.10,2013-01-01 17:14:00,
2013-01-01 12:29:00,38.6,27.0,29.84,West,271,6.0,8.0,64,0.04,,,0.07,135,weatherlink.com 1.10,2013-01-01 17:29:00,
2013-01-01 12:44:00,38.2,27.0,29.84,WNW,295,3.0,5.0,65,0.03,,,0.07,111,weatherlink.com 1.10,2013-01-01 17:44:00,
2013-01-01 12:59:00,37.8,26.0,29.84,WNW,284,2.0,5.0,63,0.03,,,0.08,104,weatherlink.com 1.10,2013-01-01 17:59:00,
2013-01-01 13:14:00,37.5,26.0,29.84,West,279,5.0,5.0,64,0.02,,,0.08,107,weatherlink.com 1.10,2013-01-01 18:14:00,
2013-01-01 13:29:00,37.0,25.0,29.84,NW,307,1.0,11.0,62,0.02,,,0.09,100,weatherlink.com 1.10,2013-01-01 18:29:00,
2013-01-01 13:44:00,36.8,25.0,29.84,WNW,292,3.0,8.0,62,0.02,,,0.09,93,weatherlink.com 1.10,2013-01-01 18:44:00,
2013-01-01 13:59:00,36.4,25.0,29.84,NW,304,6.0,8.0,63,0.02,,,0.10,86,weatherlink.com 1.10,2013-01-01 18:59:00,
2013-01-01 14:14:00,36.2,25.0,29.84,WSW,244,3.0,7.0,63,0.02,,,0.10,83,weatherlink.com 1.10,2013-01-01 19:14:00,
2013-01-01 14:29:00,36.0,25.0,29.84,NW,315,0.0,6.0,64,0.01,,,0.10,83,weatherlink.com 1.10,2013-01-01 19:29:00,
2013-01-01 14:44:00,35.7,24.0,29.84,West,279,3.0,7.0,62,0.01,,,0.10,65,weatherlink.com 1.10,2013-01-01 19:44:00,
2013-01-01 14:59:00,35.4,25.0,29.85,WNW,284,1.0,9.0,65,0.00,,,0.10,63,weatherlink.com 1.10,2013-01-01 19:59:00,
2013-01-01 15:14:00,34.9,25.0,29.85,WNW,284,2.0,6.0,66,0.00,,,0.10,62,weatherlink.com 1.10,2013-01-01 20:14:00,
2013-01-01 15:29:00,34.3,24.0,29.85,NW,304,4.0,5.0,65,0.01,,,0.11,35,weatherlink.com 1.10,2013-01-01 20:29:00,
2013-01-01 15:44:00,33.7,23.0,29.85,WNW,292,3.0,9.0,64,0.01,,,0.11,39,weatherlink.com 1.10,2013-01-01 20:44:00,
2013-01-01 15:59:00,33.2,22.0,29.85,WNW,290,2.0,7.0,63,0.01,,,0.11,21,weatherlink.com 1.10,2013-01-01 20:59:00,
2013-01-01 16:14:00,32.6,22.0,29.88,WNW,300,2.0,6.0,66,0.01,,,0.11,9,weatherlink.com 1.10,2013-01-01 21:14:00,
2013-01-01 16:29:00,31.8,22.0,29.88,NNW,327,0.0,8.0,66,0.00,,,0.11,0,weatherlink.com 1.10,2013-01-01 21:29:00,
2013-01-01 16:44:00,31.0,21.0,29.89,WNW,297,2.0,6.0,67,0.00,,,0.11,0,weatherlink.com 1.10,2013-01-01 21:44:00,
2013-01-01 16:59:00,30.1,20.0,29.91,NW,307,0.0,5.0,66,0.00,,,0.11,0,weatherlink.com 1.10,2013-01-01 21:59:00,
2013-01-01 17:14:00,29.3,19.0,29.90,NW,313,1.0,6.0,66,0.00,,,0.11,0,weatherlink.com 1.10,2013-01-01 22:14:00,
2013-01-01 17:29:00,28.8,19.0,29.90,WNW,296,0.0,7.0,67,0.00,,,0.11,0,weatherlink.com 1.10,2013-01-01 22:29:00,
2013-01-01 17:44:00,28.6,18.0,29.91,North,355,1.0,6.0,66,0.00,,,0.11,0,weatherlink.com 1.10,2013-01-01 22:44:00,
2013-01-01 18:00:00,28.6,18.0,29.93,WNW,296,0.0,4.0,66,0.00,,,0.11,0,weatherlink.com 1.10,2013-01-01 23:00:00,
2013-01-01 18:15:00,28.4,18.0,29.92,WNW,286,2.0,6.0,66,0.00,,,0.11,0,weatherlink.com 1.10,2013-01-01 23:15:00,
2013-01-01 18:30:00,28.3,18.0,29.93,NW,307,1.0,5.0,66,0.00,,,0.11,0,weatherlink.com 1.10,2013-01-01 23:30:00,
2013-01-01 18:45:00,28.0,18.0,29.93,WNW,299,4.0,4.0,67,0.00,,,0.11,0,weatherlink.com 1.10,2013-01-01 23:45:00,
2013-01-01 19:00:00,27.8,18.0,29.94,NW,325,0.0,7.0,67,0.00,,,0.11,0,weatherlink.com 1.10,2013-01-02 00:00:00,
2013-01-01 19:15:00,27.5,17.0,29.93,WNW,300,3.0,6.0,66,0.00,,,0.11,0,weatherlink.com 1.10,2013-01-02 00:15:00,
2013-01-01 19:30:00,27.2,17.0,29.94,WNW,295,1.0,6.0,66,0.00,,,0.11,0,weatherlink.com 1.10,2013-01-02 00:30:00,
2013-01-01 19:45:00,27.5,17.0,29.95,WNW,288,3.0,8.0,64,0.00,,,0.11,0,weatherlink.com 1.10,2013-01-02 00:45:00,
2013-01-01 20:00:00,27.2,16.0,29.95,NNW,329,0.0,5.0,63,0.00,,,0.11,0,weatherlink.com 1.10,2013-01-02 01:00:00,
2013-01-01 20:15:00,26.8,15.0,29.95,WSW,254,9.0,11.0,62,0.00,,,0.11,0,weatherlink.com 1.10,2013-01-02 01:15:00,
2013-01-01 20:30:00,26.5,15.0,29.95,WNW,303,1.0,6.0,61,0.00,,,0.11,0,weatherlink.com 1.10,2013-01-02 01:30:00,
2013-01-01 20:45:00,25.8,15.0,29.96,North,350,4.0,7.0,63,0.00,,,0.11,0,weatherlink.com 1.10,2013-01-02 01:45:00,
2013-01-01 21:00:00,25.4,14.0,29.96,NE,34,2.0,4.0,62,0.00,,,0.11,0,weatherlink.com 1.10,2013-01-02 02:00:00,
2013-01-01 21:15:00,24.7,13.0,29.97,NNW,327,4.0,4.0,62,0.00,,,0.11,0,weatherlink.com 1.10,2013-01-02 02:15:00,
2013-01-01 21:30:00,24.1,12.0,29.97,NW,324,1.0,6.0,61,0.00,,,0.11,0,weatherlink.com 1.10,2013-01-02 02:30:00,
2013-01-01 21:45:00,23.8,12.0,29.98,NW,308,0.0,5.0,61,0.00,,,0.11,0,weatherlink.com 1.10,2013-01-02 02:45:00,
2013-01-01 22:00:00,23.1,11.0,29.97,NW,310,2.0,4.0,61,0.00,,,0.11,0,weatherlink.com 1.10,2013-01-02 03:00:00,
2013-01-01 22:15:00,22.7,11.0,29.98,NNW,327,1.0,5.0,61,0.00,,,0.11,0,weatherlink.com 1.10,2013-01-02 03:15:00,
2013-01-01 22:30:00,22.4,10.0,29.99,WNW,298,1.0,5.0,58,0.00,,,0.11,0,weatherlink.com 1.10,2013-01-02 03:30:00,
2013-01-01 22:45:00,22.1,10.0,29.99,ENE,78,3.0,6.0,59,0.00,,,0.11,0,weatherlink.com 1.10,2013-01-02 03:45:00,
2013-01-01 23:00:00,21.7,9.0,30.00,WNW,288,0.0,3.0,59,0.00,,,0.11,0,weatherlink.com 1.10,2013-01-02 04:00:00,
2013-01-01 23:15:00,21.4,9.0,30.00,West,269,5.0,8.0,60,0.00,,,0.11,0,weatherlink.com 1.10,2013-01-02 04:15:00,
2013-01-01 23:30:00,21.4,10.0,30.00,WNW,288,5.0,5.0,61,0.00,,,0.11,0,weatherlink.com 1.10,2013-01-02 04:30:00,
2013-01-01 23:45:00,21.1,10.0,30.00,West,273,2.0,6.0,62,0.00,,,0.11,0,weatherlink.com 1.10,2013-01-02 04:45:00,